Terminal Aerodrome Forecast
Issued by NWS

Home | Current Version | Previous Version | Text Only | Print | Product List | Glossary On
Versions: 1 2 3 4 5 6 7 8 9 10 11 12 13 14 15 16 17 18
000
FTUS44 KLIX 010531
TAFMCB
TAF
KMCB 010531Z 0106/0206 15005KT P6SM OVC060
     FM011200 VRB03KT P6SM VCSH BKN011
      TEMPO 0115/0118 VRB22KT 2SM TSRA BKN015CB
     FM012000 20010KT P6SM -SHRA SCT050 OVC130=

USA.gov is the U.S. government's official web portal to all federal, state and local government web resources and services.